sensor_id;sensor_type;location;lat;lon;timestamp;P1;durP1;ratioP1;P2;durP2;ratioP2
7001;SDS011;3541;53.230;10.518;2022-08-19T00:00:33;11.57;;;9.20;;
7001;SDS011;3541;53.230;10.518;2022-08-19T00:03:00;12.05;;;9.80;;
7001;SDS011;3541;53.230;10.518;2022-08-19T00:05:26;13.15;;;9.93;;
7001;SDS011;3541;53.230;10.518;2022-08-19T00:07:54;11.15;;;9.82;;
7001;SDS011;3541;53.230;10.518;2022-08-19T00:10:21;15.80;;;10.93;;
7001;SDS011;3541;53.230;10.518;2022-08-19T00:12:49;13.60;;;10.32;;
7001;SDS011;3541;53.230;10.518;2022-08-19T00:15:16;13.55;;;10.25;;
7001;SDS011;3541;53.230;10.518;2022-08-19T00:17:45;17.88;;;10.88;;
7001;SDS011;3541;53.230;10.518;2022-08-19T00:20:13;19.15;;;10.13;;
7001;SDS011;3541;53.230;10.518;2022-08-19T00:22:42;13.02;;;9.98;;
7001;SDS011;3541;53.230;10.518;2022-08-19T00:25:11;13.85;;;9.48;;
7001;SDS011;3541;53.230;10.518;2022-08-19T00:27:38;12.88;;;9.80;;
7001;SDS011;3541;53.230;10.518;2022-08-19T00:30:05;13.93;;;9.93;;
7001;SDS011;3541;53.230;10.518;2022-08-19T00:32:35;12.52;;;9.48;;
7001;SDS011;3541;53.230;10.518;2022-08-19T00:35:01;13.15;;;8.50;;
7001;SDS011;3541;53.230;10.518;2022-08-19T00:37:28;11.57;;;8.85;;
7001;SDS011;3541;53.230;10.518;2022-08-19T00:39:55;10.82;;;8.18;;
7001;SDS011;3541;53.230;10.518;2022-08-19T00:42:23;10.43;;;8.40;;
7001;SDS011;3541;53.230;10.518;2022-08-19T00:44:53;9.95;;;8.50;;
7001;SDS011;3541;53.230;10.518;2022-08-19T00:47:20;8.70;;;7.80;;
7001;SDS011;3541;53.230;10.518;2022-08-19T00:49:47;11.20;;;8.10;;
7001;SDS011;3541;53.230;10.518;2022-08-19T00:52:17;9.02;;;7.97;;
7001;SDS011;3541;53.230;10.518;2022-08-19T00:54:48;11.23;;;7.65;;
7001;SDS011;3541;53.230;10.518;2022-08-19T00:57:17;11.18;;;8.18;;
7001;SDS011;3541;53.230;10.518;2022-08-19T00:59:47;11.30;;;8.07;;
7001;SDS011;3541;53.230;10.518;2022-08-19T01:02:17;11.25;;;8.38;;
7001;SDS011;3541;53.230;10.518;2022-08-19T01:04:44;9.60;;;8.20;;
7001;SDS011;3541;53.230;10.518;2022-08-19T01:07:11;10.65;;;7.90;;
7001;SDS011;3541;53.230;10.518;2022-08-19T01:09:38;11.27;;;7.80;;
7001;SDS011;3541;53.230;10.518;2022-08-19T01:12:05;9.75;;;7.70;;
7001;SDS011;3541;53.230;10.518;2022-08-19T01:14:33;9.73;;;7.93;;
7001;SDS011;3541;53.230;10.518;2022-08-19T01:17:01;9.45;;;7.68;;
7001;SDS011;3541;53.230;10.518;2022-08-19T01:19:28;12.25;;;8.38;;
7001;SDS011;3541;53.230;10.518;2022-08-19T01:22:00;11.93;;;8.18;;
7001;SDS011;3541;53.230;10.518;2022-08-19T01:24:30;10.88;;;7.90;;
7001;SDS011;3541;53.230;10.518;2022-08-19T01:26:57;11.00;;;8.07;;
7001;SDS011;3541;53.230;10.518;2022-08-19T01:29:24;9.32;;;7.82;;
7001;SDS011;3541;53.230;10.518;2022-08-19T01:31:51;11.95;;;8.75;;
7001;SDS011;3541;53.230;10.518;2022-08-19T01:34:18;10.38;;;7.90;;
7001;SDS011;3541;53.230;10.518;2022-08-19T01:36:46;10.27;;;8.10;;
7001;SDS011;3541;53.230;10.518;2022-08-19T01:39:15;12.75;;;8.88;;
7001;SDS011;3541;53.230;10.518;2022-08-19T01:41:46;13.48;;;8.75;;
7001;SDS011;3541;53.230;10.518;2022-08-19T01:44:12;13.70;;;9.60;;
7001;SDS011;3541;53.230;10.518;2022-08-19T01:46:40;9.05;;;8.15;;
7001;SDS011;3541;53.230;10.518;2022-08-19T01:49:07;11.55;;;8.48;;
7001;SDS011;3541;53.230;10.518;2022-08-19T01:51:34;12.10;;;8.50;;
7001;SDS011;3541;53.230;10.518;2022-08-19T01:54:01;13.73;;;8.73;;
7001;SDS011;3541;53.230;10.518;2022-08-19T01:56:28;8.70;;;7.80;;
7001;SDS011;3541;53.230;10.518;2022-08-19T01:58:58;11.38;;;8.82;;
7001;SDS011;3541;53.230;10.518;2022-08-19T02:01:27;9.57;;;8.50;;
7001;SDS011;3541;53.230;10.518;2022-08-19T02:03:56;10.35;;;9.25;;
7001;SDS011;3541;53.230;10.518;2022-08-19T02:06:23;11.88;;;9.48;;
7001;SDS011;3541;53.230;10.518;2022-08-19T02:08:50;11.32;;;9.90;;
7001;SDS011;3541;53.230;10.518;2022-08-19T02:11:21;11.68;;;9.98;;
7001;SDS011;3541;53.230;10.518;2022-08-19T02:13:50;12.63;;;9.88;;
7001;SDS011;3541;53.230;10.518;2022-08-19T02:16:18;11.27;;;9.63;;
7001;SDS011;3541;53.230;10.518;2022-08-19T02:18:45;13.27;;;9.32;;
7001;SDS011;3541;53.230;10.518;2022-08-19T02:21:13;11.73;;;9.70;;
7001;SDS011;3541;53.230;10.518;2022-08-19T02:23:40;11.38;;;9.98;;
7001;SDS011;3541;53.230;10.518;2022-08-19T02:26:07;11.10;;;9.07;;
7001;SDS011;3541;53.230;10.518;2022-08-19T02:28:34;10.98;;;9.63;;
7001;SDS011;3541;53.230;10.518;2022-08-19T02:31:01;11.60;;;10.13;;
7001;SDS011;3541;53.230;10.518;2022-08-19T02:33:30;13.77;;;10.00;;
7001;SDS011;3541;53.230;10.518;2022-08-19T02:35:56;13.25;;;9.02;;
7001;SDS011;3541;53.230;10.518;2022-08-19T02:38:23;13.02;;;8.90;;
7001;SDS011;3541;53.230;10.518;2022-08-19T02:40:52;14.20;;;9.93;;
7001;SDS011;3541;53.230;10.518;2022-08-19T02:43:20;11.25;;;9.20;;
7001;SDS011;3541;53.230;10.518;2022-08-19T02:45:48;15.02;;;8.55;;
7001;SDS011;3541;53.230;10.518;2022-08-19T02:48:16;10.77;;;8.68;;
7001;SDS011;3541;53.230;10.518;2022-08-19T02:50:45;10.93;;;8.18;;
7001;SDS011;3541;53.230;10.518;2022-08-19T02:53:12;11.77;;;8.48;;
7001;SDS011;3541;53.230;10.518;2022-08-19T02:55:42;11.38;;;8.55;;
7001;SDS011;3541;53.230;10.518;2022-08-19T02:58:10;10.20;;;8.85;;
7001;SDS011;3541;53.230;10.518;2022-08-19T03:00:40;12.10;;;8.93;;
7001;SDS011;3541;53.230;10.518;2022-08-19T03:03:08;9.93;;;8.20;;
7001;SDS011;3541;53.230;10.518;2022-08-19T03:05:35;10.85;;;9.00;;
7001;SDS011;3541;53.230;10.518;2022-08-19T03:08:04;10.35;;;8.90;;
7001;SDS011;3541;53.230;10.518;2022-08-19T03:10:31;8.35;;;7.35;;
7001;SDS011;3541;53.230;10.518;2022-08-19T03:12:57;9.68;;;8.45;;
7001;SDS011;3541;53.230;10.518;2022-08-19T03:15:24;10.40;;;8.45;;
7001;SDS011;3541;53.230;10.518;2022-08-19T03:17:51;10.55;;;8.15;;
7001;SDS011;3541;53.230;10.518;2022-08-19T03:20:18;9.60;;;8.15;;
7001;SDS011;3541;53.230;10.518;2022-08-19T03:22:44;11.52;;;8.65;;
7001;SDS011;3541;53.230;10.518;2022-08-19T03:25:12;12.43;;;9.63;;
7001;SDS011;3541;53.230;10.518;2022-08-19T03:27:39;13.80;;;10.32;;
7001;SDS011;3541;53.230;10.518;2022-08-19T03:30:06;14.38;;;10.15;;
7001;SDS011;3541;53.230;10.518;2022-08-19T03:32:33;15.20;;;10.82;;
7001;SDS011;3541;53.230;10.518;2022-08-19T03:35:00;16.63;;;10.50;;
7001;SDS011;3541;53.230;10.518;2022-08-19T03:37:27;15.40;;;11.75;;
7001;SDS011;3541;53.230;10.518;2022-08-19T03:39:54;15.23;;;11.68;;
7001;SDS011;3541;53.230;10.518;2022-08-19T03:42:22;16.13;;;10.85;;
7001;SDS011;3541;53.230;10.518;2022-08-19T03:44:49;15.25;;;11.30;;
7001;SDS011;3541;53.230;10.518;2022-08-19T03:47:16;23.83;;;15.23;;
7001;SDS011;3541;53.230;10.518;2022-08-19T03:49:43;19.95;;;14.27;;
7001;SDS011;3541;53.230;10.518;2022-08-19T03:52:11;22.50;;;14.82;;
7001;SDS011;3541;53.230;10.518;2022-08-19T03:54:38;18.35;;;13.80;;
7001;SDS011;3541;53.230;10.518;2022-08-19T03:57:05;21.85;;;15.25;;
7001;SDS011;3541;53.230;10.518;2022-08-19T03:59:34;23.63;;;15.93;;
7001;SDS011;3541;53.230;10.518;2022-08-19T04:02:05;22.92;;;15.13;;
7001;SDS011;3541;53.230;10.518;2022-08-19T04:04:34;21.95;;;15.77;;
7001;SDS011;3541;53.230;10.518;2022-08-19T04:07:01;22.13;;;16.13;;
7001;SDS011;3541;53.230;10.518;2022-08-19T04:09:27;24.08;;;15.35;;
7001;SDS011;3541;53.230;10.518;2022-08-19T04:11:55;22.25;;;14.52;;
7001;SDS011;3541;53.230;10.518;2022-08-19T04:14:24;21.73;;;14.13;;
7001;SDS011;3541;53.230;10.518;2022-08-19T04:16:56;19.60;;;14.13;;
7001;SDS011;3541;53.230;10.518;2022-08-19T04:19:22;21.00;;;13.35;;
7001;SDS011;3541;53.230;10.518;2022-08-19T04:21:50;20.35;;;13.60;;
7001;SDS011;3541;53.230;10.518;2022-08-19T04:24:18;19.60;;;12.90;;
7001;SDS011;3541;53.230;10.518;2022-08-19T04:26:46;19.65;;;13.18;;
7001;SDS011;3541;53.230;10.518;2022-08-19T04:29:14;17.65;;;12.48;;
7001;SDS011;3541;53.230;10.518;2022-08-19T04:31:43;14.88;;;11.77;;
7001;SDS011;3541;53.230;10.518;2022-08-19T04:34:12;16.15;;;11.48;;
7001;SDS011;3541;53.230;10.518;2022-08-19T04:36:41;14.98;;;11.43;;
7001;SDS011;3541;53.230;10.518;2022-08-19T04:39:10;17.10;;;11.63;;
7001;SDS011;3541;53.230;10.518;2022-08-19T04:41:39;17.88;;;12.32;;
7001;SDS011;3541;53.230;10.518;2022-08-19T04:44:23;16.23;;;12.73;;
7001;SDS011;3541;53.230;10.518;2022-08-19T04:46:50;18.77;;;11.70;;
7001;SDS011;3541;53.230;10.518;2022-08-19T04:49:19;14.77;;;11.25;;
7001;SDS011;3541;53.230;10.518;2022-08-19T04:51:48;14.45;;;10.95;;
7001;SDS011;3541;53.230;10.518;2022-08-19T04:54:15;17.00;;;10.73;;
7001;SDS011;3541;53.230;10.518;2022-08-19T04:56:45;17.15;;;10.98;;
7001;SDS011;3541;53.230;10.518;2022-08-19T04:59:12;18.23;;;11.45;;
7001;SDS011;3541;53.230;10.518;2022-08-19T05:01:39;15.45;;;11.18;;
7001;SDS011;3541;53.230;10.518;2022-08-19T05:04:08;18.83;;;11.65;;
7001;SDS011;3541;53.230;10.518;2022-08-19T05:06:36;13.43;;;10.35;;
7001;SDS011;3541;53.230;10.518;2022-08-19T05:09:04;17.58;;;10.52;;
7001;SDS011;3541;53.230;10.518;2022-08-19T05:11:32;20.13;;;11.68;;
7001;SDS011;3541;53.230;10.518;2022-08-19T05:14:01;15.88;;;12.00;;
7001;SDS011;3541;53.230;10.518;2022-08-19T05:16:28;14.50;;;11.18;;
7001;SDS011;3541;53.230;10.518;2022-08-19T05:18:55;14.20;;;10.48;;
7001;SDS011;3541;53.230;10.518;2022-08-19T05:21:41;17.83;;;10.50;;
7001;SDS011;3541;53.230;10.518;2022-08-19T05:24:25;18.67;;;11.65;;
7001;SDS011;3541;53.230;10.518;2022-08-19T05:26:53;16.83;;;12.85;;
7001;SDS011;3541;53.230;10.518;2022-08-19T05:29:23;18.00;;;13.68;;
7001;SDS011;3541;53.230;10.518;2022-08-19T05:31:51;19.52;;;12.65;;
7001;SDS011;3541;53.230;10.518;2022-08-19T05:34:21;17.55;;;11.32;;
7001;SDS011;3541;53.230;10.518;2022-08-19T05:36:52;23.75;;;13.55;;
7001;SDS011;3541;53.230;10.518;2022-08-19T05:39:22;21.48;;;12.93;;
7001;SDS011;3541;53.230;10.518;2022-08-19T05:41:54;20.67;;;13.90;;
7001;SDS011;3541;53.230;10.518;2022-08-19T05:44:23;19.50;;;13.68;;
7001;SDS011;3541;53.230;10.518;2022-08-19T05:46:50;20.10;;;13.23;;
7001;SDS011;3541;53.230;10.518;2022-08-19T05:49:20;20.90;;;13.48;;
7001;SDS011;3541;53.230;10.518;2022-08-19T05:51:47;18.45;;;13.82;;
7001;SDS011;3541;53.230;10.518;2022-08-19T05:54:16;17.38;;;13.40;;
7001;SDS011;3541;53.230;10.518;2022-08-19T05:56:44;16.90;;;13.50;;
7001;SDS011;3541;53.230;10.518;2022-08-19T05:59:12;22.63;;;16.00;;
7001;SDS011;3541;53.230;10.518;2022-08-19T06:01:41;26.23;;;14.52;;
7001;SDS011;3541;53.230;10.518;2022-08-19T06:04:09;24.80;;;15.88;;
7001;SDS011;3541;53.230;10.518;2022-08-19T06:06:36;23.77;;;15.50;;
7001;SDS011;3541;53.230;10.518;2022-08-19T06:09:03;23.77;;;15.63;;
7001;SDS011;3541;53.230;10.518;2022-08-19T06:11:34;22.77;;;15.68;;
7001;SDS011;3541;53.230;10.518;2022-08-19T06:14:03;22.20;;;15.38;;
7001;SDS011;3541;53.230;10.518;2022-08-19T06:16:33;23.40;;;15.85;;
7001;SDS011;3541;53.230;10.518;2022-08-19T06:19:01;26.38;;;14.35;;
7001;SDS011;3541;53.230;10.518;2022-08-19T06:21:31;22.02;;;15.63;;
7001;SDS011;3541;53.230;10.518;2022-08-19T06:23:58;19.58;;;14.45;;
7001;SDS011;3541;53.230;10.518;2022-08-19T06:26:26;23.02;;;15.00;;
7001;SDS011;3541;53.230;10.518;2022-08-19T06:28:54;21.30;;;14.35;;
7001;SDS011;3541;53.230;10.518;2022-08-19T06:31:22;22.92;;;13.48;;
7001;SDS011;3541;53.230;10.518;2022-08-19T06:33:50;24.55;;;15.45;;
7001;SDS011;3541;53.230;10.518;2022-08-19T06:36:17;21.20;;;14.23;;
7001;SDS011;3541;53.230;10.518;2022-08-19T06:38:45;22.58;;;15.45;;
7001;SDS011;3541;53.230;10.518;2022-08-19T06:41:12;24.02;;;15.80;;
7001;SDS011;3541;53.230;10.518;2022-08-19T06:43:39;23.23;;;15.80;;
7001;SDS011;3541;53.230;10.518;2022-08-19T06:46:11;24.50;;;15.32;;
7001;SDS011;3541;53.230;10.518;2022-08-19T06:48:38;26.33;;;15.30;;
7001;SDS011;3541;53.230;10.518;2022-08-19T06:51:05;24.70;;;15.07;;
7001;SDS011;3541;53.230;10.518;2022-08-19T06:53:32;24.85;;;16.83;;
7001;SDS011;3541;53.230;10.518;2022-08-19T06:55:59;24.98;;;16.35;;
7001;SDS011;3541;53.230;10.518;2022-08-19T06:58:27;27.92;;;17.90;;
7001;SDS011;3541;53.230;10.518;2022-08-19T07:00:57;29.80;;;18.40;;
7001;SDS011;3541;53.230;10.518;2022-08-19T07:03:27;26.90;;;18.63;;
7001;SDS011;3541;53.230;10.518;2022-08-19T07:05:55;29.00;;;20.27;;
7001;SDS011;3541;53.230;10.518;2022-08-19T07:08:22;33.53;;;21.30;;
7001;SDS011;3541;53.230;10.518;2022-08-19T07:10:49;38.75;;;24.70;;
7001;SDS011;3541;53.230;10.518;2022-08-19T07:13:15;39.75;;;25.75;;
7001;SDS011;3541;53.230;10.518;2022-08-19T07:15:42;39.88;;;25.83;;
7001;SDS011;3541;53.230;10.518;2022-08-19T07:18:11;42.28;;;28.40;;
7001;SDS011;3541;53.230;10.518;2022-08-19T07:20:39;41.67;;;27.58;;
7001;SDS011;3541;53.230;10.518;2022-08-19T07:23:07;40.13;;;25.85;;
7001;SDS011;3541;53.230;10.518;2022-08-19T07:25:35;36.03;;;25.27;;
7001;SDS011;3541;53.230;10.518;2022-08-19T07:28:02;33.88;;;23.60;;
7001;SDS011;3541;53.230;10.518;2022-08-19T07:30:29;34.03;;;22.98;;
7001;SDS011;3541;53.230;10.518;2022-08-19T07:32:56;35.78;;;24.83;;
7001;SDS011;3541;53.230;10.518;2022-08-19T07:35:23;37.10;;;24.02;;
7001;SDS011;3541;53.230;10.518;2022-08-19T07:37:52;39.53;;;26.33;;
7001;SDS011;3541;53.230;10.518;2022-08-19T07:40:18;39.03;;;25.92;;
7001;SDS011;3541;53.230;10.518;2022-08-19T07:42:45;37.20;;;24.73;;
7001;SDS011;3541;53.230;10.518;2022-08-19T07:45:11;36.20;;;24.85;;
7001;SDS011;3541;53.230;10.518;2022-08-19T07:47:38;39.00;;;25.55;;
7001;SDS011;3541;53.230;10.518;2022-08-19T07:50:06;45.63;;;27.35;;
7001;SDS011;3541;53.230;10.518;2022-08-19T07:52:36;36.15;;;24.63;;
7001;SDS011;3541;53.230;10.518;2022-08-19T07:55:07;32.15;;;23.73;;
7001;SDS011;3541;53.230;10.518;2022-08-19T07:57:35;38.13;;;24.85;;
7001;SDS011;3541;53.230;10.518;2022-08-19T08:00:04;39.28;;;25.75;;
7001;SDS011;3541;53.230;10.518;2022-08-19T08:02:31;35.10;;;24.65;;
7001;SDS011;3541;53.230;10.518;2022-08-19T08:04:58;35.47;;;23.77;;
7001;SDS011;3541;53.230;10.518;2022-08-19T08:07:42;37.90;;;25.52;;
7001;SDS011;3541;53.230;10.518;2022-08-19T08:10:27;38.75;;;25.27;;
7001;SDS011;3541;53.230;10.518;2022-08-19T08:12:54;41.38;;;26.77;;
7001;SDS011;3541;53.230;10.518;2022-08-19T08:15:21;40.58;;;26.77;;
7001;SDS011;3541;53.230;10.518;2022-08-19T08:17:47;41.33;;;26.90;;
7001;SDS011;3541;53.230;10.518;2022-08-19T08:20:14;42.63;;;27.80;;
7001;SDS011;3541;53.230;10.518;2022-08-19T08:22:42;41.28;;;27.92;;
7001;SDS011;3541;53.230;10.518;2022-08-19T08:25:29;48.28;;;28.85;;
7001;SDS011;3541;53.230;10.518;2022-08-19T08:27:57;45.65;;;28.48;;
7001;SDS011;3541;53.230;10.518;2022-08-19T08:30:25;45.70;;;29.90;;
7001;SDS011;3541;53.230;10.518;2022-08-19T08:32:52;47.03;;;28.70;;
7001;SDS011;3541;53.230;10.518;2022-08-19T08:35:20;42.92;;;30.25;;
7001;SDS011;3541;53.230;10.518;2022-08-19T08:37:51;46.78;;;29.30;;
7001;SDS011;3541;53.230;10.518;2022-08-19T08:40:20;44.65;;;28.58;;
7001;SDS011;3541;53.230;10.518;2022-08-19T08:42:55;44.63;;;28.45;;
7001;SDS011;3541;53.230;10.518;2022-08-19T08:45:27;42.22;;;28.63;;
7001;SDS011;3541;53.230;10.518;2022-08-19T08:47:56;41.90;;;27.55;;
7001;SDS011;3541;53.230;10.518;2022-08-19T08:50:28;38.85;;;26.95;;
7001;SDS011;3541;53.230;10.518;2022-08-19T08:53:01;40.38;;;26.98;;
7001;SDS011;3541;53.230;10.518;2022-08-19T08:55:29;39.55;;;26.67;;
7001;SDS011;3541;53.230;10.518;2022-08-19T08:57:59;40.83;;;27.42;;
7001;SDS011;3541;53.230;10.518;2022-08-19T09:00:30;41.50;;;26.25;;
7001;SDS011;3541;53.230;10.518;2022-08-19T09:02:59;44.30;;;27.80;;
7001;SDS011;3541;53.230;10.518;2022-08-19T09:05:30;44.83;;;28.08;;
7001;SDS011;3541;53.230;10.518;2022-08-19T09:08:07;44.50;;;28.52;;
7001;SDS011;3541;53.230;10.518;2022-08-19T09:10:39;44.50;;;29.38;;
7001;SDS011;3541;53.230;10.518;2022-08-19T09:13:12;46.97;;;28.88;;
7001;SDS011;3541;53.230;10.518;2022-08-19T09:15:45;48.17;;;29.73;;
7001;SDS011;3541;53.230;10.518;2022-08-19T09:18:17;45.05;;;28.90;;
7001;SDS011;3541;53.230;10.518;2022-08-19T09:20:43;44.88;;;30.40;;
7001;SDS011;3541;53.230;10.518;2022-08-19T09:23:12;46.20;;;29.98;;
7001;SDS011;3541;53.230;10.518;2022-08-19T09:25:38;46.20;;;31.25;;
7001;SDS011;3541;53.230;10.518;2022-08-19T09:28:05;50.85;;;31.13;;
7001;SDS011;3541;53.230;10.518;2022-08-19T09:30:34;46.47;;;29.38;;
7001;SDS011;3541;53.230;10.518;2022-08-19T09:33:05;49.05;;;31.63;;
7001;SDS011;3541;53.230;10.518;2022-08-19T09:35:32;52.45;;;31.35;;
7001;SDS011;3541;53.230;10.518;2022-08-19T09:38:00;52.60;;;32.70;;
7001;SDS011;3541;53.230;10.518;2022-08-19T09:40:28;52.58;;;32.42;;
7001;SDS011;3541;53.230;10.518;2022-08-19T09:42:55;60.92;;;34.17;;
7001;SDS011;3541;53.230;10.518;2022-08-19T09:45:27;52.85;;;32.10;;
7001;SDS011;3541;53.230;10.518;2022-08-19T09:47:55;53.00;;;32.40;;
7001;SDS011;3541;53.230;10.518;2022-08-19T09:50:23;57.53;;;31.60;;
7001;SDS011;3541;53.230;10.518;2022-08-19T09:52:49;54.15;;;31.85;;
7001;SDS011;3541;53.230;10.518;2022-08-19T09:55:18;54.10;;;31.70;;
7001;SDS011;3541;53.230;10.518;2022-08-19T09:57:44;47.30;;;30.45;;
7001;SDS011;3541;53.230;10.518;2022-08-19T10:00:11;47.22;;;30.58;;
7001;SDS011;3541;53.230;10.518;2022-08-19T10:02:38;48.00;;;29.17;;
7001;SDS011;3541;53.230;10.518;2022-08-19T10:05:07;46.78;;;30.08;;
7001;SDS011;3541;53.230;10.518;2022-08-19T10:07:51;49.38;;;29.25;;
7001;SDS011;3541;53.230;10.518;2022-08-19T10:10:19;44.05;;;30.17;;
7001;SDS011;3541;53.230;10.518;2022-08-19T10:12:46;48.90;;;27.83;;
7001;SDS011;3541;53.230;10.518;2022-08-19T10:15:13;43.55;;;28.58;;
7001;SDS011;3541;53.230;10.518;2022-08-19T10:17:41;46.35;;;28.85;;
7001;SDS011;3541;53.230;10.518;2022-08-19T10:20:10;44.58;;;27.83;;
7001;SDS011;3541;53.230;10.518;2022-08-19T10:22:36;44.42;;;28.20;;
7001;SDS011;3541;53.230;10.518;2022-08-19T10:25:04;45.35;;;27.05;;
7001;SDS011;3541;53.230;10.518;2022-08-19T10:27:32;45.70;;;27.42;;
7001;SDS011;3541;53.230;10.518;2022-08-19T10:29:58;42.67;;;28.25;;
7001;SDS011;3541;53.230;10.518;2022-08-19T10:32:26;47.03;;;29.52;;
7001;SDS011;3541;53.230;10.518;2022-08-19T10:34:54;48.85;;;29.33;;
7001;SDS011;3541;53.230;10.518;2022-08-19T10:37:22;43.60;;;27.73;;
7001;SDS011;3541;53.230;10.518;2022-08-19T10:39:49;46.95;;;28.77;;
7001;SDS011;3541;53.230;10.518;2022-08-19T10:42:16;48.60;;;29.80;;
7001;SDS011;3541;53.230;10.518;2022-08-19T10:44:43;47.33;;;29.60;;
7001;SDS011;3541;53.230;10.518;2022-08-19T10:47:11;49.22;;;29.48;;
7001;SDS011;3541;53.230;10.518;2022-08-19T10:49:38;47.70;;;28.85;;
7001;SDS011;3541;53.230;10.518;2022-08-19T10:52:26;43.38;;;28.35;;
7001;SDS011;3541;53.230;10.518;2022-08-19T10:55:01;48.17;;;30.27;;
7001;SDS011;3541;53.230;10.518;2022-08-19T10:57:46;47.20;;;28.00;;
7001;SDS011;3541;53.230;10.518;2022-08-19T11:00:13;48.75;;;29.80;;
7001;SDS011;3541;53.230;10.518;2022-08-19T11:02:40;52.83;;;30.10;;
7001;SDS011;3541;53.230;10.518;2022-08-19T11:05:07;50.38;;;28.38;;
7001;SDS011;3541;53.230;10.518;2022-08-19T11:07:37;49.08;;;29.38;;
7001;SDS011;3541;53.230;10.518;2022-08-19T11:10:04;44.05;;;28.17;;
7001;SDS011;3541;53.230;10.518;2022-08-19T11:12:32;50.55;;;29.65;;
7001;SDS011;3541;53.230;10.518;2022-08-19T11:14:58;51.60;;;31.55;;
7001;SDS011;3541;53.230;10.518;2022-08-19T11:17:25;47.97;;;30.83;;
7001;SDS011;3541;53.230;10.518;2022-08-19T11:19:52;51.90;;;31.35;;
7001;SDS011;3541;53.230;10.518;2022-08-19T11:22:18;58.53;;;30.85;;
7001;SDS011;3541;53.230;10.518;2022-08-19T11:24:46;47.83;;;31.27;;
7001;SDS011;3541;53.230;10.518;2022-08-19T11:27:13;51.17;;;32.05;;
7001;SDS011;3541;53.230;10.518;2022-08-19T11:29:40;54.42;;;31.83;;
7001;SDS011;3541;53.230;10.518;2022-08-19T11:32:07;51.83;;;31.55;;
7001;SDS011;3541;53.230;10.518;2022-08-19T11:34:35;52.47;;;31.10;;
7001;SDS011;3541;53.230;10.518;2022-08-19T11:37:03;50.42;;;31.10;;
7001;SDS011;3541;53.230;10.518;2022-08-19T11:39:31;50.47;;;31.95;;
7001;SDS011;3541;53.230;10.518;2022-08-19T11:42:00;52.55;;;33.15;;
7001;SDS011;3541;53.230;10.518;2022-08-19T11:44:28;52.55;;;32.67;;
7001;SDS011;3541;53.230;10.518;2022-08-19T11:46:55;52.45;;;33.70;;
7001;SDS011;3541;53.230;10.518;2022-08-19T11:49:22;53.35;;;33.72;;
7001;SDS011;3541;53.230;10.518;2022-08-19T11:51:49;54.42;;;33.95;;
7001;SDS011;3541;53.230;10.518;2022-08-19T11:54:16;53.47;;;34.35;;
7001;SDS011;3541;53.230;10.518;2022-08-19T11:56:43;53.72;;;33.88;;
7001;SDS011;3541;53.230;10.518;2022-08-19T11:59:14;51.63;;;32.67;;
7001;SDS011;3541;53.230;10.518;2022-08-19T12:01:40;60.78;;;35.22;;
7001;SDS011;3541;53.230;10.518;2022-08-19T12:04:08;49.63;;;32.60;;
7001;SDS011;3541;53.230;10.518;2022-08-19T12:06:37;54.40;;;33.50;;
7001;SDS011;3541;53.230;10.518;2022-08-19T12:09:05;52.92;;;33.90;;
7001;SDS011;3541;53.230;10.518;2022-08-19T12:11:34;56.13;;;35.47;;
7001;SDS011;3541;53.230;10.518;2022-08-19T12:14:02;56.20;;;36.17;;
7001;SDS011;3541;53.230;10.518;2022-08-19T12:16:30;51.67;;;34.85;;
7001;SDS011;3541;53.230;10.518;2022-08-19T12:18:57;53.70;;;34.83;;
7001;SDS011;3541;53.230;10.518;2022-08-19T12:21:29;51.90;;;34.03;;
7001;SDS011;3541;53.230;10.518;2022-08-19T12:23:57;55.13;;;35.45;;
7001;SDS011;3541;53.230;10.518;2022-08-19T12:26:25;52.15;;;32.80;;
7001;SDS011;3541;53.230;10.518;2022-08-19T12:28:53;49.88;;;32.65;;
7001;SDS011;3541;53.230;10.518;2022-08-19T12:31:20;50.03;;;33.00;;
7001;SDS011;3541;53.230;10.518;2022-08-19T12:33:48;52.80;;;33.03;;
7001;SDS011;3541;53.230;10.518;2022-08-19T12:36:17;53.47;;;34.10;;
7001;SDS011;3541;53.230;10.518;2022-08-19T12:38:44;50.58;;;33.65;;
7001;SDS011;3541;53.230;10.518;2022-08-19T12:41:12;49.40;;;35.00;;
7001;SDS011;3541;53.230;10.518;2022-08-19T12:43:42;53.20;;;35.10;;
7001;SDS011;3541;53.230;10.518;2022-08-19T12:46:09;51.97;;;37.38;;
7001;SDS011;3541;53.230;10.518;2022-08-19T12:48:37;51.72;;;35.75;;
7001;SDS011;3541;53.230;10.518;2022-08-19T12:51:09;50.40;;;35.22;;
7001;SDS011;3541;53.230;10.518;2022-08-19T12:53:37;58.60;;;37.08;;
7001;SDS011;3541;53.230;10.518;2022-08-19T12:56:04;50.10;;;35.83;;
7001;SDS011;3541;53.230;10.518;2022-08-19T12:58:31;49.53;;;34.67;;
7001;SDS011;3541;53.230;10.518;2022-08-19T13:00:59;49.13;;;34.85;;
7001;SDS011;3541;53.230;10.518;2022-08-19T13:03:26;51.25;;;33.53;;
7001;SDS011;3541;53.230;10.518;2022-08-19T13:05:54;49.53;;;35.13;;
7001;SDS011;3541;53.230;10.518;2022-08-19T13:08:22;48.67;;;34.72;;
7001;SDS011;3541;53.230;10.518;2022-08-19T13:10:49;46.42;;;35.38;;
7001;SDS011;3541;53.230;10.518;2022-08-19T13:13:16;46.25;;;35.70;;
7001;SDS011;3541;53.230;10.518;2022-08-19T13:15:42;42.85;;;34.65;;
7001;SDS011;3541;53.230;10.518;2022-08-19T13:18:10;44.00;;;34.03;;
7001;SDS011;3541;53.230;10.518;2022-08-19T13:20:37;43.80;;;33.10;;
7001;SDS011;3541;53.230;10.518;2022-08-19T13:23:06;41.13;;;33.42;;
7001;SDS011;3541;53.230;10.518;2022-08-19T13:25:34;42.38;;;33.38;;
7001;SDS011;3541;53.230;10.518;2022-08-19T13:28:01;42.22;;;33.20;;
7001;SDS011;3541;53.230;10.518;2022-08-19T13:30:28;42.00;;;32.72;;
7001;SDS011;3541;53.230;10.518;2022-08-19T13:33:12;45.45;;;33.83;;
7001;SDS011;3541;53.230;10.518;2022-08-19T13:35:43;40.97;;;32.88;;
7001;SDS011;3541;53.230;10.518;2022-08-19T13:38:12;45.13;;;32.63;;
7001;SDS011;3541;53.230;10.518;2022-08-19T13:40:41;41.58;;;30.95;;
7001;SDS011;3541;53.230;10.518;2022-08-19T13:43:08;42.38;;;30.80;;
7001;SDS011;3541;53.230;10.518;2022-08-19T13:45:35;41.90;;;31.83;;
7001;SDS011;3541;53.230;10.518;2022-08-19T13:48:04;40.78;;;30.95;;
7001;SDS011;3541;53.230;10.518;2022-08-19T13:50:33;38.97;;;30.60;;
7001;SDS011;3541;53.230;10.518;2022-08-19T13:53:01;41.17;;;30.80;;
7001;SDS011;3541;53.230;10.518;2022-08-19T13:55:29;42.03;;;30.13;;
7001;SDS011;3541;53.230;10.518;2022-08-19T13:57:57;41.38;;;30.40;;
7001;SDS011;3541;53.230;10.518;2022-08-19T14:00:27;41.97;;;29.77;;
7001;SDS011;3541;53.230;10.518;2022-08-19T14:02:56;41.40;;;30.20;;
7001;SDS011;3541;53.230;10.518;2022-08-19T14:05:24;37.63;;;28.88;;
7001;SDS011;3541;53.230;10.518;2022-08-19T14:07:51;39.92;;;29.63;;
7001;SDS011;3541;53.230;10.518;2022-08-19T14:10:18;38.03;;;28.33;;
7001;SDS011;3541;53.230;10.518;2022-08-19T14:12:46;38.25;;;29.55;;
7001;SDS011;3541;53.230;10.518;2022-08-19T14:15:14;37.95;;;28.40;;
7001;SDS011;3541;53.230;10.518;2022-08-19T14:17:42;37.72;;;28.55;;
7001;SDS011;3541;53.230;10.518;2022-08-19T14:20:12;37.13;;;28.35;;
7001;SDS011;3541;53.230;10.518;2022-08-19T14:22:40;35.65;;;27.10;;
7001;SDS011;3541;53.230;10.518;2022-08-19T14:25:10;34.70;;;26.67;;
7001;SDS011;3541;53.230;10.518;2022-08-19T14:27:38;33.60;;;27.27;;
7001;SDS011;3541;53.230;10.518;2022-08-19T14:30:07;35.25;;;25.85;;
7001;SDS011;3541;53.230;10.518;2022-08-19T14:32:36;33.67;;;27.17;;
7001;SDS011;3541;53.230;10.518;2022-08-19T14:35:04;29.90;;;25.83;;
7001;SDS011;3541;53.230;10.518;2022-08-19T14:37:32;29.48;;;24.02;;
7001;SDS011;3541;53.230;10.518;2022-08-19T14:39:59;30.45;;;24.17;;
7001;SDS011;3541;53.230;10.518;2022-08-19T14:42:26;29.33;;;23.73;;
7001;SDS011;3541;53.230;10.518;2022-08-19T14:44:53;30.17;;;23.73;;